createdAt,value
2017-09-26T00:00:27.899Z,91.80
2017-09-26T00:02:56.290Z,91.90
2017-09-26T00:05:23.911Z,91.90
2017-09-26T00:07:51.622Z,92.10
2017-09-26T00:10:19.490Z,92.60
2017-09-26T00:12:48.113Z,92.00
2017-09-26T00:15:16.253Z,92.00
2017-09-26T00:17:43.863Z,91.60
2017-09-26T00:20:11.512Z,91.20
2017-09-26T00:22:39.112Z,90.90
2017-09-26T00:25:06.746Z,91.00
2017-09-26T00:27:34.355Z,90.90
2017-09-26T00:30:01.944Z,90.80
2017-09-26T00:32:29.559Z,90.90
2017-09-26T00:34:57.937Z,90.80
2017-09-26T00:37:25.787Z,90.80
2017-09-26T00:39:53.438Z,90.80
2017-09-26T00:42:21.222Z,90.90
2017-09-26T00:44:49.103Z,90.80
2017-09-26T00:47:17.836Z,91.00
2017-09-26T00:49:45.844Z,91.00
2017-09-26T00:52:14.221Z,91.40
2017-09-26T00:54:41.871Z,91.30
2017-09-26T00:57:10.244Z,92.00
2017-09-26T00:59:37.851Z,91.90
2017-09-26T01:02:05.444Z,91.80
2017-09-26T01:04:33.190Z,91.70
2017-09-26T01:07:19.942Z,91.20
2017-09-26T01:09:48.553Z,91.60
2017-09-26T01:12:17.333Z,92.00
2017-09-26T01:14:45.178Z,92.30
2017-09-26T01:17:13.691Z,92.00
2017-09-26T01:19:41.437Z,92.00
2017-09-26T01:22:09.096Z,91.80
2017-09-26T01:24:36.802Z,91.50
2017-09-26T01:27:04.487Z,91.50
2017-09-26T01:29:32.227Z,91.20
2017-09-26T01:31:59.866Z,91.10
2017-09-26T01:34:27.583Z,91.20
2017-09-26T01:36:55.289Z,91.10
2017-09-26T01:39:22.955Z,91.40
2017-09-26T01:41:50.786Z,91.60
2017-09-26T01:44:18.575Z,91.80
2017-09-26T01:46:46.340Z,91.90
2017-09-26T01:49:13.956Z,92.00
2017-09-26T01:51:42.353Z,91.90
2017-09-26T01:54:09.963Z,91.80
2017-09-26T01:59:42.703Z,91.80
2017-09-26T02:02:10.316Z,92.00
2017-09-26T02:04:38.100Z,92.00
2017-09-26T02:07:05.759Z,92.00
2017-09-26T02:09:33.450Z,92.00
2017-09-26T02:12:01.176Z,91.80
2017-09-26T02:14:29.612Z,92.00
2017-09-26T02:16:57.338Z,92.40
2017-09-26T02:19:25.107Z,92.00
2017-09-26T02:21:52.830Z,91.80
2017-09-26T02:24:20.580Z,92.00
2017-09-26T02:26:48.471Z,92.00
2017-09-26T02:29:16.242Z,92.30
2017-09-26T02:31:44.691Z,92.30
2017-09-26T02:34:13.138Z,92.20
2017-09-26T02:36:40.836Z,92.20
2017-09-26T02:39:08.434Z,92.40
2017-09-26T02:41:36.085Z,92.50
2017-09-26T02:44:03.714Z,92.70
2017-09-26T02:46:31.396Z,92.60
2017-09-26T02:48:59.131Z,92.90
2017-09-26T02:51:26.751Z,92.50
2017-09-26T02:53:54.375Z,92.40
2017-09-26T02:56:22.103Z,92.30
2017-09-26T02:58:50.655Z,92.40
2017-09-26T03:01:18.377Z,92.40
2017-09-26T03:03:46.016Z,92.40
2017-09-26T03:06:13.729Z,92.30
2017-09-26T03:08:41.403Z,92.30
2017-09-26T03:11:09.100Z,92.00
2017-09-26T03:13:36.786Z,91.90
2017-09-26T03:16:04.471Z,92.00
2017-09-26T03:18:32.146Z,92.20
2017-09-26T03:20:59.810Z,92.20
2017-09-26T03:23:28.209Z,92.60
2017-09-26T03:25:56.001Z,92.60
2017-09-26T03:28:23.696Z,92.50
2017-09-26T03:30:51.714Z,92.70
2017-09-26T03:33:20.435Z,92.70
2017-09-26T03:35:48.527Z,92.70
2017-09-26T03:38:17.844Z,92.50
2017-09-26T03:40:45.623Z,92.30
2017-09-26T03:43:13.316Z,92.40
2017-09-26T03:45:40.912Z,92.70
2017-09-26T03:48:08.614Z,92.60
2017-09-26T03:50:36.219Z,92.70
2017-09-26T03:53:03.902Z,92.50
2017-09-26T03:55:31.533Z,92.30
2017-09-26T03:57:59.194Z,92.10
2017-09-26T04:00:26.795Z,92.00
2017-09-26T04:02:54.524Z,92.00
2017-09-26T04:05:22.210Z,92.00
2017-09-26T04:07:49.956Z,91.90
2017-09-26T04:10:17.879Z,92.10
2017-09-26T04:12:46.261Z,92.40
2017-09-26T04:15:13.868Z,92.30
2017-09-26T04:17:41.644Z,92.30
2017-09-26T04:20:09.464Z,92.50
2017-09-26T04:22:37.319Z,92.60
2017-09-26T04:25:05.035Z,92.70
2017-09-26T04:27:33.400Z,92.60
2017-09-26T04:30:01.784Z,92.40
2017-09-26T04:32:29.379Z,92.40
2017-09-26T04:34:57.012Z,92.40
2017-09-26T04:37:24.669Z,92.20
2017-09-26T04:39:52.364Z,92.40
2017-09-26T04:42:21.007Z,92.50
2017-09-26T04:44:49.433Z,92.50
2017-09-26T04:47:18.022Z,92.50
2017-09-26T04:49:45.858Z,92.50
2017-09-26T04:52:13.477Z,92.60
2017-09-26T04:54:41.107Z,92.50
2017-09-26T04:57:08.745Z,92.40
2017-09-26T04:59:36.372Z,92.30
2017-09-26T05:02:04.003Z,92.40
2017-09-26T05:04:31.603Z,92.50
2017-09-26T05:06:59.145Z,92.50
2017-09-26T05:09:26.728Z,92.90
2017-09-26T05:11:55.091Z,92.70
2017-09-26T05:14:23.519Z,92.90
2017-09-26T05:16:51.143Z,92.90
2017-09-26T05:19:18.861Z,93.00
2017-09-26T05:21:46.894Z,93.10
2017-09-26T05:24:14.641Z,92.90
2017-09-26T05:26:42.250Z,92.70
2017-09-26T05:29:09.833Z,92.60
2017-09-26T05:31:37.468Z,92.70
2017-09-26T05:34:06.544Z,92.60
2017-09-26T05:36:34.071Z,92.60
2017-09-26T05:39:01.649Z,92.90
2017-09-26T05:41:29.196Z,92.90
2017-09-26T05:43:57.123Z,92.90
2017-09-26T05:46:25.493Z,92.80
2017-09-26T05:48:53.180Z,92.80
2017-09-26T05:51:20.790Z,92.80
2017-09-26T05:53:48.412Z,92.70
2017-09-26T05:56:16.003Z,92.90
2017-09-26T05:58:43.626Z,93.30
2017-09-26T06:01:11.180Z,93.30
2017-09-26T06:03:38.758Z,93.30
2017-09-26T06:06:06.298Z,92.80
2017-09-26T06:08:34.673Z,92.70
2017-09-26T06:11:02.220Z,92.70
2017-09-26T06:13:29.810Z,92.70
2017-09-26T06:15:57.449Z,92.50
2017-09-26T06:18:25.039Z,92.40
2017-09-26T06:20:53.347Z,93.20
2017-09-26T06:23:20.940Z,92.80
2017-09-26T06:25:48.536Z,93.00
2017-09-26T06:28:16.196Z,93.20
2017-09-26T06:30:44.500Z,93.50
2017-09-26T06:33:12.857Z,93.40
2017-09-26T06:35:40.421Z,93.40
2017-09-26T06:38:08.751Z,93.40
2017-09-26T06:40:36.323Z,93.40
2017-09-26T06:43:04.659Z,93.60
2017-09-26T06:45:32.528Z,93.60
2017-09-26T06:48:00.888Z,93.20
2017-09-26T06:50:28.504Z,93.10
2017-09-26T06:52:56.815Z,92.40
2017-09-26T06:55:25.159Z,92.30
2017-09-26T06:57:52.707Z,92.20
2017-09-26T07:00:20.328Z,92.30
2017-09-26T07:02:47.957Z,92.20
2017-09-26T07:05:15.559Z,92.50
2017-09-26T07:07:43.902Z,92.80
2017-09-26T07:10:11.491Z,92.80
2017-09-26T07:12:39.038Z,92.80
2017-09-26T07:15:06.626Z,92.60
2017-09-26T07:17:34.167Z,92.50
2017-09-26T07:20:01.743Z,92.50
2017-09-26T07:22:29.287Z,92.40
2017-09-26T07:24:57.653Z,92.20
2017-09-26T07:27:25.210Z,92.00
2017-09-26T07:29:53.563Z,91.80
2017-09-26T07:32:21.942Z,92.00
2017-09-26T07:34:49.575Z,91.90
2017-09-26T07:37:18.112Z,91.70
2017-09-26T07:39:45.745Z,91.60
2017-09-26T07:42:13.343Z,91.70
2017-09-26T07:44:41.662Z,91.50
2017-09-26T07:47:09.245Z,91.50
2017-09-26T07:49:37.611Z,90.90
2017-09-26T07:52:05.919Z,90.60
2017-09-26T07:54:33.462Z,90.60
2017-09-26T07:57:01.035Z,90.90
2017-09-26T07:59:28.604Z,90.30
2017-09-26T08:01:57.234Z,89.30
2017-09-26T08:04:25.127Z,89.20
2017-09-26T08:06:53.760Z,88.50
2017-09-26T08:09:22.409Z,88.50
2017-09-26T08:11:50.021Z,88.70
2017-09-26T08:14:18.347Z,87.80
2017-09-26T08:16:46.833Z,87.70
2017-09-26T08:19:14.387Z,88.50
2017-09-26T08:21:41.963Z,88.10
2017-09-26T08:24:10.709Z,86.90
2017-09-26T08:26:39.831Z,86.40
2017-09-26T08:29:08.499Z,86.20
2017-09-26T08:31:36.231Z,86.20
2017-09-26T08:34:04.006Z,85.70
2017-09-26T08:36:31.722Z,85.60
2017-09-26T08:38:59.317Z,85.60
2017-09-26T08:41:28.161Z,84.60
2017-09-26T08:43:55.750Z,84.30
2017-09-26T08:46:23.344Z,84.10
2017-09-26T08:48:51.323Z,84.10
2017-09-26T08:51:18.910Z,83.10
2017-09-26T08:53:46.918Z,83.70
2017-09-26T08:56:14.536Z,81.70
2017-09-26T08:58:42.179Z,81.80
2017-09-26T09:01:11.091Z,80.90
2017-09-26T09:03:39.954Z,81.70
2017-09-26T09:06:07.532Z,80.80
2017-09-26T09:08:35.308Z,80.00
2017-09-26T09:11:03.663Z,79.00
2017-09-26T09:13:31.346Z,79.00
2017-09-26T09:15:58.937Z,80.10
2017-09-26T09:18:28.605Z,78.80
2017-09-26T09:20:56.508Z,78.30
2017-09-26T09:23:24.244Z,78.00
2017-09-26T09:25:51.860Z,78.00
2017-09-26T09:28:19.483Z,77.40
2017-09-26T09:30:47.128Z,77.00
2017-09-26T09:33:14.751Z,76.60
2017-09-26T09:35:42.454Z,76.50
2017-09-26T09:38:10.116Z,77.30
2017-09-26T09:40:37.696Z,77.70
2017-09-26T09:43:05.319Z,77.90
2017-09-26T09:45:32.920Z,78.30
2017-09-26T09:48:00.561Z,76.80
2017-09-26T09:50:28.242Z,76.70
2017-09-26T09:52:56.023Z,76.60
2017-09-26T09:55:23.648Z,75.70
2017-09-26T09:57:51.402Z,75.00
2017-09-26T10:00:19.725Z,74.00
2017-09-26T10:02:47.456Z,74.10
2017-09-26T10:05:15.586Z,74.50
2017-09-26T10:07:44.213Z,74.50
2017-09-26T10:10:11.787Z,75.40
2017-09-26T10:12:39.363Z,73.10
2017-09-26T10:15:06.901Z,72.50
2017-09-26T10:17:34.696Z,71.80
2017-09-26T10:20:02.295Z,73.10
2017-09-26T10:22:29.883Z,73.40
2017-09-26T10:24:57.439Z,71.60
2017-09-26T10:27:25.039Z,71.50
2017-09-26T10:29:52.690Z,70.30
2017-09-26T10:32:20.252Z,71.40
2017-09-26T10:34:47.900Z,70.90
2017-09-26T10:37:15.534Z,71.10
2017-09-26T10:39:43.124Z,69.70
2017-09-26T10:42:10.730Z,70.20
2017-09-26T10:44:38.387Z,69.40
2017-09-26T10:47:05.971Z,68.90
2017-09-26T10:49:33.562Z,69.00
2017-09-26T10:52:01.128Z,69.70
2017-09-26T10:54:28.880Z,68.70
2017-09-26T10:56:56.483Z,68.00
2017-09-26T10:59:24.067Z,68.30
2017-09-26T11:01:52.557Z,68.30
2017-09-26T11:04:22.503Z,68.50
2017-09-26T11:06:50.061Z,68.50
2017-09-26T11:09:17.637Z,68.90
2017-09-26T11:11:45.937Z,67.30
2017-09-26T11:14:13.515Z,67.30
2017-09-26T11:16:41.059Z,67.60
2017-09-26T11:19:08.664Z,68.00
2017-09-26T11:21:36.285Z,66.10
2017-09-26T11:24:04.604Z,65.60
2017-09-26T11:26:32.242Z,65.60
2017-09-26T11:28:59.817Z,65.20
2017-09-26T11:31:27.452Z,66.10
2017-09-26T11:33:55.009Z,65.30
2017-09-26T11:36:22.623Z,64.80
2017-09-26T11:38:50.162Z,64.90
2017-09-26T11:41:17.818Z,63.90
2017-09-26T11:43:45.362Z,63.80
2017-09-26T11:46:12.941Z,62.70
2017-09-26T11:48:40.483Z,62.00
2017-09-26T11:51:08.067Z,61.10
2017-09-26T11:53:35.622Z,61.80
2017-09-26T11:56:03.180Z,61.80
2017-09-26T11:58:31.109Z,62.80
2017-09-26T12:00:58.794Z,63.10
2017-09-26T12:03:27.402Z,58.70
2017-09-26T12:05:57.020Z,57.50
2017-09-26T12:08:26.563Z,57.30
2017-09-26T12:10:55.725Z,58.10
2017-09-26T12:13:29.814Z,59.80
2017-09-26T12:15:57.565Z,59.80
2017-09-26T12:18:25.498Z,60.10
2017-09-26T12:20:54.106Z,58.60
2017-09-26T12:23:22.308Z,60.30
2017-09-26T12:25:51.795Z,61.00
2017-09-26T12:28:19.621Z,61.00
2017-09-26T12:30:47.542Z,61.90
2017-09-26T12:33:15.403Z,63.10
2017-09-26T12:35:43.813Z,63.20
2017-09-26T12:38:12.077Z,63.00
2017-09-26T12:40:40.655Z,65.00
2017-09-26T12:43:08.270Z,64.70
2017-09-26T12:45:35.988Z,63.70
2017-09-26T12:48:03.629Z,64.30
2017-09-26T12:50:31.344Z,63.60
2017-09-26T12:52:58.916Z,63.50
2017-09-26T12:55:26.693Z,63.50
2017-09-26T12:57:54.240Z,59.60
2017-09-26T13:00:21.843Z,59.60
2017-09-26T13:02:49.399Z,59.20
2017-09-26T13:05:16.935Z,60.00
2017-09-26T13:07:44.526Z,58.90
2017-09-26T13:10:12.088Z,60.50
2017-09-26T13:12:39.664Z,58.90
2017-09-26T13:15:07.969Z,55.70
2017-09-26T13:17:35.562Z,55.70
2017-09-26T13:20:03.870Z,54.80
2017-09-26T13:22:31.475Z,54.80
2017-09-26T13:24:59.802Z,55.90
2017-09-26T13:27:27.460Z,55.90
2017-09-26T13:29:55.015Z,54.70
2017-09-26T13:32:22.562Z,57.70
2017-09-26T13:34:50.177Z,55.50
2017-09-26T13:37:17.738Z,55.70
2017-09-26T13:39:45.337Z,55.90
2017-09-26T13:42:12.880Z,57.10
2017-09-26T13:44:40.454Z,51.50
2017-09-26T13:47:07.995Z,51.00
2017-09-26T13:49:35.582Z,54.00
2017-09-26T13:52:03.916Z,53.60
2017-09-26T13:54:31.604Z,53.60
2017-09-26T13:56:59.247Z,56.00
2017-09-26T13:59:26.844Z,56.30
2017-09-26T14:01:54.408Z,56.60
2017-09-26T14:04:21.995Z,57.60
2017-09-26T14:06:50.301Z,56.80
2017-09-26T14:09:17.871Z,56.80
2017-09-26T14:11:45.419Z,57.20
2017-09-26T14:14:13.000Z,57.20
2017-09-26T14:16:40.548Z,57.80
2017-09-26T14:19:08.132Z,57.50
2017-09-26T14:21:35.684Z,57.60
2017-09-26T14:24:03.292Z,57.50
2017-09-26T14:26:30.884Z,57.20
2017-09-26T14:28:58.774Z,56.10
2017-09-26T14:31:26.325Z,55.00
2017-09-26T14:33:54.636Z,53.70
2017-09-26T14:36:22.209Z,53.70
2017-09-26T14:38:49.745Z,54.80
2017-09-26T14:41:18.104Z,56.40
2017-09-26T14:43:45.659Z,56.40
2017-09-26T14:46:13.254Z,57.30
2017-09-26T14:48:40.798Z,58.00
2017-09-26T14:51:08.364Z,58.50
2017-09-26T14:53:35.920Z,58.80
2017-09-26T14:56:03.522Z,59.40
2017-09-26T14:58:31.085Z,60.80
2017-09-26T15:00:59.685Z,59.90
2017-09-26T15:03:28.248Z,59.90
2017-09-26T15:05:55.843Z,60.00
2017-09-26T15:08:23.403Z,60.90
2017-09-26T15:10:50.935Z,62.80
2017-09-26T15:13:18.512Z,62.00
2017-09-26T15:15:46.060Z,63.80
2017-09-26T15:18:13.634Z,64.50
2017-09-26T15:20:41.171Z,63.70
2017-09-26T15:23:08.956Z,62.90
2017-09-26T15:25:36.515Z,67.50
2017-09-26T15:28:04.282Z,66.80
2017-09-26T15:30:31.914Z,68.90
2017-09-26T15:32:59.455Z,70.00
2017-09-26T15:35:27.033Z,70.30
2017-09-26T15:37:54.579Z,68.70
2017-09-26T15:40:22.167Z,69.50
2017-09-26T15:42:50.501Z,71.10
2017-09-26T15:45:18.076Z,71.10
2017-09-26T15:47:46.387Z,72.00
2017-09-26T15:50:13.967Z,71.90
2017-09-26T15:52:41.511Z,72.10
2017-09-26T15:55:09.124Z,73.50
2017-09-26T15:57:36.682Z,74.10
2017-09-26T16:00:04.275Z,74.00
2017-09-26T16:02:31.848Z,75.30
2017-09-26T16:04:59.566Z,75.80
2017-09-26T16:07:27.241Z,76.10
2017-09-26T16:09:54.876Z,76.80
2017-09-26T16:12:22.435Z,76.40
2017-09-26T16:14:50.008Z,76.40
2017-09-26T16:17:17.550Z,76.90
2017-09-26T16:19:45.115Z,76.80
2017-09-26T16:22:12.653Z,76.90
2017-09-26T16:24:40.228Z,77.40
2017-09-26T16:27:08.847Z,78.10
2017-09-26T16:29:36.488Z,78.00
2017-09-26T16:32:04.231Z,78.20
2017-09-26T16:34:32.085Z,78.30
2017-09-26T16:36:59.660Z,78.70
2017-09-26T16:39:27.269Z,79.40
2017-09-26T16:41:54.840Z,79.40
2017-09-26T16:44:22.431Z,79.70
2017-09-26T16:46:50.752Z,79.90
2017-09-26T16:49:19.100Z,80.10
2017-09-26T16:51:46.627Z,80.10
2017-09-26T16:54:14.186Z,80.50
2017-09-26T16:56:41.718Z,80.50
2017-09-26T16:59:09.283Z,80.40
2017-09-26T17:01:36.856Z,80.80
2017-09-26T17:04:04.464Z,81.10
2017-09-26T17:06:32.047Z,81.60
2017-09-26T17:08:59.639Z,82.30
2017-09-26T17:11:27.235Z,82.90
2017-09-26T17:13:54.879Z,83.30
2017-09-26T17:16:22.435Z,83.40
2017-09-26T17:18:49.985Z,83.20
2017-09-26T17:21:17.588Z,82.60
2017-09-26T17:23:45.122Z,82.80
2017-09-26T17:26:12.697Z,83.00
2017-09-26T17:28:40.363Z,83.60
2017-09-26T17:31:08.065Z,83.60
2017-09-26T17:33:35.779Z,83.50
2017-09-26T17:36:04.136Z,83.30
2017-09-26T17:38:31.855Z,83.30
2017-09-26T17:41:00.512Z,83.60
2017-09-26T17:43:31.407Z,83.60
2017-09-26T17:46:03.621Z,83.20
2017-09-26T17:48:33.931Z,83.60
2017-09-26T17:51:05.072Z,84.00
2017-09-26T17:53:34.890Z,84.00
2017-09-26T17:56:04.211Z,84.20
2017-09-26T17:58:34.610Z,84.30
2017-09-26T18:01:05.620Z,84.20
2017-09-26T18:03:34.067Z,84.60
2017-09-26T18:06:01.937Z,84.50
2017-09-26T18:08:29.559Z,85.20
2017-09-26T18:10:57.176Z,84.70
2017-09-26T18:13:24.716Z,85.10
2017-09-26T18:15:52.296Z,84.80
2017-09-26T18:18:20.653Z,83.80
2017-09-26T18:20:48.195Z,83.70
2017-09-26T18:23:15.816Z,83.70
2017-09-26T18:25:43.357Z,84.30
2017-09-26T18:28:10.991Z,84.50
2017-09-26T18:30:38.539Z,83.50
2017-09-26T18:33:06.184Z,84.20
2017-09-26T18:35:33.749Z,84.40
2017-09-26T18:38:01.416Z,84.50
2017-09-26T18:40:29.190Z,85.00
2017-09-26T18:42:57.608Z,85.60
2017-09-26T18:45:25.207Z,85.60
2017-09-26T18:47:53.616Z,85.10
2017-09-26T18:50:21.456Z,85.00
2017-09-26T18:52:52.997Z,85.00
2017-09-26T18:55:22.197Z,84.90
2017-09-26T18:57:50.754Z,85.20
2017-09-26T19:00:18.643Z,84.90
2017-09-26T19:02:46.273Z,85.60
2017-09-26T19:05:15.272Z,85.60
2017-09-26T19:07:43.880Z,85.60
2017-09-26T19:10:12.324Z,85.70
2017-09-26T19:12:40.714Z,85.60
2017-09-26T19:15:08.329Z,85.60
2017-09-26T19:17:36.734Z,85.70
2017-09-26T19:20:04.374Z,85.70
2017-09-26T19:22:31.979Z,85.80
2017-09-26T19:25:00.386Z,85.80
2017-09-26T19:27:28.028Z,85.80
2017-09-26T19:29:55.646Z,85.70
2017-09-26T19:32:24.058Z,85.40
2017-09-26T19:34:51.668Z,85.40
2017-09-26T19:37:19.256Z,85.60
2017-09-26T19:39:46.851Z,85.90
2017-09-26T19:42:15.234Z,85.60
2017-09-26T19:44:42.851Z,86.40
2017-09-26T19:47:10.480Z,85.70
2017-09-26T19:49:38.029Z,85.40
2017-09-26T19:52:05.691Z,85.20
2017-09-26T19:54:34.096Z,85.30
2017-09-26T19:57:01.805Z,85.20
2017-09-26T19:59:30.211Z,85.70
2017-09-26T20:01:57.923Z,85.60
2017-09-26T20:04:26.296Z,85.80
2017-09-26T20:06:54.692Z,85.60
2017-09-26T20:11:57.074Z,85.10
2017-09-26T20:14:24.690Z,85.10
2017-09-26T20:16:52.340Z,85.10
2017-09-26T20:19:19.975Z,85.30
2017-09-26T20:21:47.519Z,85.20
2017-09-26T20:24:15.211Z,85.20
2017-09-26T20:26:42.758Z,85.50
2017-09-26T20:29:10.349Z,86.20
2017-09-26T20:31:37.888Z,85.50
2017-09-26T20:34:06.294Z,86.20
2017-09-26T20:36:33.850Z,86.20
2017-09-26T20:39:01.461Z,86.20
2017-09-26T20:41:29.100Z,86.60
2017-09-26T20:43:58.272Z,86.80
2017-09-26T20:46:26.579Z,86.40
2017-09-26T20:48:54.159Z,86.40
2017-09-26T20:51:21.716Z,86.10
2017-09-26T20:53:49.395Z,86.20
2017-09-26T20:56:16.975Z,86.60
2017-09-26T20:58:44.561Z,87.30
2017-09-26T21:01:12.230Z,87.60
2017-09-26T21:03:40.029Z,87.10
2017-09-26T21:06:07.562Z,86.60
2017-09-26T21:08:35.928Z,87.00
2017-09-26T21:11:03.488Z,87.00
2017-09-26T21:13:31.084Z,87.40
2017-09-26T21:15:59.009Z,87.20
2017-09-26T21:18:26.592Z,87.40
2017-09-26T21:20:54.175Z,87.80
2017-09-26T21:23:21.736Z,87.90
2017-09-26T21:25:50.089Z,87.10
2017-09-26T21:28:17.651Z,87.00
2017-09-26T21:30:45.226Z,86.90
2017-09-26T21:33:12.772Z,86.90
2017-09-26T21:35:40.350Z,86.40
2017-09-26T21:38:07.895Z,86.20
2017-09-26T21:40:35.479Z,86.50
2017-09-26T21:43:03.802Z,87.10
2017-09-26T21:45:31.396Z,87.10
2017-09-26T21:47:59.595Z,86.70
2017-09-26T21:50:27.195Z,86.10
2017-09-26T21:52:54.817Z,87.00
2017-09-26T21:55:22.395Z,86.20
2017-09-26T21:57:50.695Z,86.20
2017-09-26T22:00:18.275Z,86.20
2017-09-26T22:02:45.834Z,86.60
2017-09-26T22:05:13.412Z,86.10
2017-09-26T22:07:40.972Z,86.20
2017-09-26T22:10:08.541Z,87.30
2017-09-26T22:12:36.120Z,88.50
2017-09-26T22:15:04.486Z,90.00
2017-09-26T22:17:32.856Z,88.50
2017-09-26T22:20:00.461Z,88.40
2017-09-26T22:22:28.086Z,88.60
2017-09-26T22:24:55.706Z,88.60
2017-09-26T22:27:23.296Z,88.60
2017-09-26T22:29:50.934Z,89.00
2017-09-26T22:32:18.513Z,89.60
2017-09-26T22:34:46.055Z,90.20
2017-09-26T22:37:13.620Z,90.30
2017-09-26T22:39:41.933Z,90.90
2017-09-26T22:42:09.509Z,90.50
2017-09-26T22:44:37.072Z,90.40
2017-09-26T22:47:05.417Z,90.70
2017-09-26T22:49:32.994Z,90.70
2017-09-26T22:52:00.678Z,90.80
2017-09-26T22:54:28.261Z,90.70
2017-09-26T22:56:55.820Z,90.80
2017-09-26T22:59:23.367Z,90.90
2017-09-26T23:01:51.764Z,91.00
2017-09-26T23:04:19.343Z,91.00
2017-09-26T23:06:46.899Z,90.90
2017-09-26T23:09:14.439Z,90.90
2017-09-26T23:11:42.020Z,91.00
2017-09-26T23:14:10.314Z,91.10
2017-09-26T23:16:37.858Z,91.10
2017-09-26T23:19:05.436Z,91.30
2017-09-26T23:21:32.998Z,91.10
2017-09-26T23:24:01.356Z,91.10
2017-09-26T23:26:28.926Z,91.10
2017-09-26T23:28:56.522Z,91.00
2017-09-26T23:31:24.078Z,90.80
2017-09-26T23:33:51.631Z,91.10
2017-09-26T23:36:19.166Z,90.60
2017-09-26T23:38:46.729Z,90.50
2017-09-26T23:41:14.268Z,90.60
2017-09-26T23:43:41.841Z,90.70
2017-09-26T23:46:10.140Z,90.90
2017-09-26T23:48:37.729Z,90.90
2017-09-26T23:51:05.286Z,90.70
2017-09-26T23:53:33.683Z,90.80
2017-09-26T23:56:01.276Z,90.80
2017-09-26T23:58:28.843Z,91.00
